createdAt,value
2022-12-27T00:00:18.661Z,82.73
2022-12-27T00:01:58.882Z,83.02
2022-12-27T00:03:39.069Z,82.58
2022-12-27T00:05:19.279Z,82.95
2022-12-27T00:06:59.441Z,83.1
2022-12-27T00:08:39.650Z,82.91
2022-12-27T00:10:19.929Z,82.68
2022-12-27T00:12:00.345Z,82.96
2022-12-27T00:13:40.246Z,83.29
2022-12-27T00:15:20.408Z,83.79
2022-12-27T00:17:00.605Z,83.53
2022-12-27T00:18:40.798Z,83.69
2022-12-27T00:20:21.019Z,83.95
2022-12-27T00:22:01.149Z,84.25
2022-12-27T00:23:41.324Z,84.15
2022-12-27T00:25:21.527Z,84.05
2022-12-27T00:27:01.695Z,84.37
2022-12-27T00:28:41.912Z,84.73
2022-12-27T00:30:22.095Z,84.92
2022-12-27T00:32:02.301Z,85.51
2022-12-27T00:33:42.439Z,85.11
2022-12-27T00:35:22.603Z,85.4
2022-12-27T00:37:02.783Z,85.21
2022-12-27T00:38:42.977Z,85.52
2022-12-27T00:40:23.176Z,86.02
2022-12-27T00:42:03.410Z,86.36
2022-12-27T00:43:43.578Z,86.9
2022-12-27T00:45:23.805Z,87.49
2022-12-27T00:47:03.937Z,87.78
2022-12-27T00:48:44.102Z,88.25
2022-12-27T00:50:24.271Z,88.42
2022-12-27T00:52:04.447Z,88.88
2022-12-27T00:53:44.606Z,88.98
2022-12-27T00:55:24.762Z,89.08
2022-12-27T00:57:04.988Z,89.26
2022-12-27T00:58:45.117Z,89.63
2022-12-27T01:00:25.324Z,89.75
2022-12-27T01:02:05.515Z,89.67
2022-12-27T01:03:46.023Z,87.95
2022-12-27T01:05:25.907Z,88.79
2022-12-27T01:07:06.059Z,88.66
2022-12-27T01:08:46.253Z,88.12
2022-12-27T01:10:26.407Z,87.19
2022-12-27T01:12:06.626Z,86.93
2022-12-27T01:13:46.848Z,86.96
2022-12-27T01:15:26.997Z,87.51
2022-12-27T01:17:07.174Z,88.25
2022-12-27T01:18:47.387Z,88.49
2022-12-27T01:20:27.545Z,89.03
2022-12-27T01:22:07.748Z,89.3
2022-12-27T01:23:47.962Z,89.54
2022-12-27T01:25:28.127Z,89.82
2022-12-27T01:27:08.303Z,89.9
2022-12-27T01:28:48.510Z,89.39
2022-12-27T01:30:28.697Z,89.38
2022-12-27T01:32:08.907Z,88.81
2022-12-27T01:33:49.049Z,88.27
2022-12-27T01:35:29.270Z,87.79
2022-12-27T01:37:09.430Z,87.94
2022-12-27T01:38:49.601Z,87.54
2022-12-27T01:40:29.837Z,88.14
2022-12-27T01:42:10.039Z,88
2022-12-27T01:43:50.231Z,87.54
2022-12-27T01:45:30.457Z,87.73
2022-12-27T01:48:50.764Z,87.06
2022-12-27T01:50:30.959Z,86.92
2022-12-27T01:52:11.093Z,86.81
2022-12-27T01:53:51.234Z,86.78
2022-12-27T01:55:31.462Z,87.12
2022-12-27T01:57:11.640Z,87.18
2022-12-27T01:58:51.867Z,87.48
2022-12-27T02:00:32.004Z,87.44
2022-12-27T02:02:12.350Z,87.72
2022-12-27T02:03:52.373Z,87.33
2022-12-27T02:05:32.571Z,87.09
2022-12-27T02:07:12.752Z,87.28
2022-12-27T02:08:52.953Z,87.26
2022-12-27T02:10:33.148Z,87.38
2022-12-27T02:12:13.281Z,87.43
2022-12-27T02:13:53.455Z,87.61
2022-12-27T02:15:33.626Z,87.42
2022-12-27T02:17:13.919Z,87.07
2022-12-27T02:18:54.041Z,87.16
2022-12-27T02:20:34.245Z,87.23
2022-12-27T02:22:14.376Z,87.57
2022-12-27T02:23:54.636Z,87.79
2022-12-27T02:25:34.786Z,88.09
2022-12-27T02:27:14.991Z,87.94
2022-12-27T02:28:55.166Z,87.9
2022-12-27T02:30:35.465Z,88.03
2022-12-27T02:32:15.599Z,87.97
2022-12-27T02:33:55.794Z,88.17
2022-12-27T02:35:35.998Z,88.13
2022-12-27T02:37:16.128Z,88.36
2022-12-27T02:38:56.296Z,88.15
2022-12-27T02:40:36.488Z,88.51
2022-12-27T02:42:16.630Z,88.83
2022-12-27T02:43:56.857Z,89.18
2022-12-27T02:45:37.028Z,89.42
2022-12-27T02:47:17.267Z,89.59
2022-12-27T02:48:57.463Z,89.45
2022-12-27T02:50:37.612Z,89.52
2022-12-27T02:52:17.845Z,89.69
2022-12-27T02:53:58.022Z,90.84
2022-12-27T02:55:38.174Z,89.86
2022-12-27T02:57:18.350Z,88.63
2022-12-27T02:58:58.580Z,88.35
2022-12-27T03:00:38.714Z,88.21
2022-12-27T03:02:19.055Z,88.15
2022-12-27T03:03:59.116Z,87.87
2022-12-27T03:05:39.260Z,87.37
2022-12-27T03:07:19.464Z,87.14
2022-12-27T03:08:59.623Z,86.96
2022-12-27T03:12:19.999Z,86.91
2022-12-27T03:14:00.179Z,86.55
2022-12-27T03:15:40.447Z,86.3
2022-12-27T03:17:20.622Z,86.25
2022-12-27T03:19:00.805Z,85.92
2022-12-27T03:20:40.972Z,85.78
2022-12-27T03:22:21.148Z,85.84
2022-12-27T03:24:01.370Z,85.59
2022-12-27T03:25:41.565Z,85.61
2022-12-27T03:27:21.807Z,85.85
2022-12-27T03:29:02.001Z,85.69
2022-12-27T03:30:42.202Z,85.55
2022-12-27T03:32:22.314Z,85.27
2022-12-27T03:34:02.497Z,85.19
2022-12-27T03:35:42.683Z,85.06
2022-12-27T03:37:22.856Z,85.06
2022-12-27T03:39:03.030Z,84.93
2022-12-27T03:40:43.241Z,84.93
2022-12-27T03:42:23.426Z,84.55
2022-12-27T03:44:03.639Z,84.89
2022-12-27T03:45:43.887Z,85.1
2022-12-27T03:47:24.098Z,85.05
2022-12-27T03:49:04.290Z,85.16
2022-12-27T03:50:44.484Z,85.1
2022-12-27T03:52:24.654Z,84.79
2022-12-27T03:54:04.862Z,84.74
2022-12-27T03:55:45.020Z,85.15
2022-12-27T03:57:25.185Z,85
2022-12-27T03:59:05.407Z,85.04
2022-12-27T04:00:45.556Z,85.16
2022-12-27T04:02:26.089Z,85.34
2022-12-27T04:04:06.012Z,85.27
2022-12-27T04:05:46.239Z,85.15
2022-12-27T04:07:26.418Z,85.47
2022-12-27T04:09:06.624Z,85.34
2022-12-27T04:10:46.794Z,85.42
2022-12-27T04:12:26.982Z,85.25
2022-12-27T04:14:07.185Z,85.04
2022-12-27T04:15:47.384Z,85.26
2022-12-27T04:17:27.603Z,85.21
2022-12-27T04:19:07.792Z,85.3
2022-12-27T04:20:47.958Z,85.27
2022-12-27T04:22:28.126Z,85.24
2022-12-27T04:24:08.323Z,85.37
2022-12-27T04:25:48.512Z,85.5
2022-12-27T04:27:28.699Z,85.96
2022-12-27T04:29:08.917Z,85.91
2022-12-27T04:30:49.133Z,85.83
2022-12-27T04:32:29.283Z,85.85
2022-12-27T04:34:09.443Z,86.21
2022-12-27T04:35:49.615Z,85.83
2022-12-27T04:37:29.815Z,86.21
2022-12-27T04:39:10.042Z,85.99
2022-12-27T04:40:50.231Z,85.87
2022-12-27T04:42:30.372Z,86
2022-12-27T04:44:10.600Z,85.68
2022-12-27T04:45:50.800Z,85.95
2022-12-27T04:47:31.014Z,86.05
2022-12-27T04:49:11.162Z,86.32
2022-12-27T04:50:51.330Z,86.4
2022-12-27T04:52:31.500Z,86.19
2022-12-27T04:54:11.692Z,86.3
2022-12-27T04:55:51.797Z,86.06
2022-12-27T04:57:31.997Z,85.52
2022-12-27T04:59:12.171Z,85.85
2022-12-27T05:00:52.374Z,85.52
2022-12-27T05:02:32.732Z,85.56
2022-12-27T05:04:12.745Z,85.48
2022-12-27T05:05:52.915Z,85.03
2022-12-27T05:07:33.101Z,84.99
2022-12-27T05:09:17.295Z,84.94
2022-12-27T05:10:53.482Z,84.99
2022-12-27T05:12:33.673Z,85.37
2022-12-27T05:14:13.837Z,84.35
2022-12-27T05:15:54.031Z,84.72
2022-12-27T05:17:34.277Z,84.3
2022-12-27T05:19:14.455Z,83.85
2022-12-27T05:20:54.634Z,83.54
2022-12-27T05:22:34.812Z,83.52
2022-12-27T05:24:15.015Z,83.65
2022-12-27T05:25:55.181Z,83.12
2022-12-27T05:27:35.313Z,83.45
2022-12-27T05:29:15.595Z,83
2022-12-27T05:30:55.811Z,82.39
2022-12-27T05:32:35.963Z,82.55
2022-12-27T05:34:16.170Z,82.54
2022-12-27T05:35:56.444Z,82.78
2022-12-27T05:37:36.560Z,83.12
2022-12-27T05:39:16.771Z,83.24
2022-12-27T05:40:56.964Z,83.15
2022-12-27T05:42:37.191Z,82.81
2022-12-27T05:44:17.407Z,82.11
2022-12-27T05:45:57.615Z,82.06
2022-12-27T05:47:37.827Z,81.69
2022-12-27T05:49:18.042Z,81.55
2022-12-27T05:50:58.213Z,81.29
2022-12-27T05:52:41.147Z,81.61
2022-12-27T05:54:19.218Z,81.64
2022-12-27T05:55:58.794Z,80.85
2022-12-27T05:57:38.976Z,81.87
2022-12-27T05:59:19.179Z,81.58
2022-12-27T06:00:59.317Z,81.71
2022-12-27T06:02:39.836Z,82.3
2022-12-27T06:04:19.700Z,81.36
2022-12-27T06:05:59.861Z,81.62
2022-12-27T06:07:40.007Z,82.21
2022-12-27T06:09:20.228Z,81.41
2022-12-27T06:11:00.464Z,81.92
2022-12-27T06:12:40.667Z,81.17
2022-12-27T06:14:20.905Z,81.07
2022-12-27T06:16:01.127Z,81.42
2022-12-27T06:17:41.314Z,81.66
2022-12-27T06:19:21.471Z,82.05
2022-12-27T06:21:01.668Z,81.58
2022-12-27T06:22:41.893Z,81.62
2022-12-27T06:24:22.031Z,81.48
2022-12-27T06:26:02.283Z,81.34
2022-12-27T06:27:42.442Z,81.55
2022-12-27T06:29:22.599Z,81.64
2022-12-27T06:31:09.800Z,82.13
2022-12-27T06:32:49.987Z,81.89
2022-12-27T06:34:30.192Z,81.31
2022-12-27T06:36:10.394Z,81.69
2022-12-27T06:37:50.496Z,81.56
2022-12-27T06:39:30.766Z,81.41
2022-12-27T06:41:10.924Z,81.5
2022-12-27T06:42:51.159Z,81.94
2022-12-27T06:44:31.393Z,82.13
2022-12-27T06:46:17.023Z,81.56
2022-12-27T06:47:51.712Z,81.56
2022-12-27T06:49:31.933Z,81.91
2022-12-27T06:51:12.107Z,81.42
2022-12-27T06:52:52.346Z,81.21
2022-12-27T06:54:32.554Z,81.5
2022-12-27T06:56:12.714Z,81.54
2022-12-27T06:57:52.934Z,81.61
2022-12-27T06:59:33.056Z,82.11
2022-12-27T07:01:13.339Z,81.79
2022-12-27T07:02:53.641Z,81.82
2022-12-27T07:04:33.553Z,82.18
2022-12-27T07:06:13.818Z,82.38
2022-12-27T07:07:54.026Z,82.06
2022-12-27T07:09:34.212Z,82.38
2022-12-27T07:11:14.345Z,82.76
2022-12-27T07:12:54.519Z,82.55
2022-12-27T07:14:34.684Z,83.28
2022-12-27T07:16:14.892Z,82.95
2022-12-27T07:17:55.100Z,83.05
2022-12-27T07:19:35.232Z,83.02
2022-12-27T07:21:15.443Z,83.84
2022-12-27T07:22:55.614Z,83.56
2022-12-27T07:24:35.806Z,83.76
2022-12-27T07:26:15.964Z,83.18
2022-12-27T07:27:56.185Z,82.93
2022-12-27T07:29:41.921Z,82.74
2022-12-27T07:31:16.712Z,83.06
2022-12-27T07:32:56.781Z,83.15
2022-12-27T07:34:37.035Z,83.27
2022-12-27T07:36:17.225Z,82.32
2022-12-27T07:37:57.371Z,82.85
2022-12-27T07:39:37.605Z,82.87
2022-12-27T07:41:17.868Z,82.82
2022-12-27T07:42:58.045Z,82.47
2022-12-27T07:44:38.270Z,82.71
2022-12-27T07:46:18.542Z,81.87
2022-12-27T07:47:58.702Z,81.89
2022-12-27T07:49:38.935Z,81.96
2022-12-27T07:51:19.088Z,81.64
2022-12-27T07:52:59.297Z,82.07
2022-12-27T07:54:39.451Z,81.68
2022-12-27T07:56:25.521Z,81.55
2022-12-27T07:57:59.879Z,80.81
2022-12-27T07:59:40.027Z,81.2
2022-12-27T08:01:20.305Z,80.84
2022-12-27T08:03:00.407Z,80.83
2022-12-27T08:04:40.598Z,80.65
2022-12-27T08:06:20.835Z,80.98
2022-12-27T08:08:00.997Z,80.43
2022-12-27T08:09:41.115Z,80.56
2022-12-27T08:11:21.274Z,81.3
2022-12-27T08:13:01.517Z,81.28
2022-12-27T08:14:41.698Z,81.58
2022-12-27T08:16:21.956Z,80.82
2022-12-27T08:18:02.057Z,81.3
2022-12-27T08:19:42.182Z,80.12
2022-12-27T08:21:22.416Z,81.11
2022-12-27T08:23:02.661Z,80.82
2022-12-27T08:24:42.854Z,81.68
2022-12-27T08:26:23.020Z,80.36
2022-12-27T08:28:03.184Z,80.25
2022-12-27T08:29:43.375Z,79.74
2022-12-27T08:31:23.611Z,80.38
2022-12-27T08:33:03.790Z,80.03
2022-12-27T08:34:43.987Z,79.85
2022-12-27T08:38:04.283Z,81.05
2022-12-27T08:39:44.485Z,80.77
2022-12-27T08:41:24.642Z,80.05
2022-12-27T08:43:04.860Z,80.42
2022-12-27T08:44:45.096Z,80.13
2022-12-27T08:46:25.272Z,80.36
2022-12-27T08:48:10.379Z,80.9
2022-12-27T08:49:50.581Z,81
2022-12-27T08:51:38.750Z,80.16
2022-12-27T08:53:10.951Z,80.47
2022-12-27T08:54:51.124Z,80.48
2022-12-27T08:56:31.292Z,81.15
2022-12-27T08:58:15.950Z,80.5
2022-12-27T08:59:51.696Z,81.11
2022-12-27T09:01:31.978Z,80.77
2022-12-27T09:03:12.090Z,80.48
2022-12-27T09:04:52.284Z,80.34
2022-12-27T09:06:32.441Z,79.89
2022-12-27T09:08:12.616Z,81.01
2022-12-27T09:09:52.818Z,80.85
2022-12-27T09:11:32.999Z,80.22
2022-12-27T09:13:13.208Z,81.03
2022-12-27T09:14:53.370Z,80.09
2022-12-27T09:16:33.569Z,80.39
2022-12-27T09:18:13.751Z,79.75
2022-12-27T09:19:53.959Z,80.68
2022-12-27T09:21:34.217Z,80.33
2022-12-27T09:23:14.289Z,80.17
2022-12-27T09:24:54.509Z,80.3
2022-12-27T09:26:34.734Z,80
2022-12-27T09:28:14.901Z,80.63
2022-12-27T09:29:55.114Z,80.77
2022-12-27T09:31:35.326Z,80.9
2022-12-27T09:33:15.480Z,81.2
2022-12-27T09:34:55.771Z,81.11
2022-12-27T09:36:35.903Z,79.32
2022-12-27T09:38:16.063Z,79.83
2022-12-27T09:39:56.259Z,79.35
2022-12-27T09:43:25.409Z,78.76
2022-12-27T09:44:56.868Z,78.54
2022-12-27T09:46:37.154Z,79.39
2022-12-27T09:48:17.193Z,78.68
2022-12-27T09:49:57.404Z,78.77
2022-12-27T09:51:37.593Z,78.91
2022-12-27T09:53:17.827Z,78.8
2022-12-27T09:55:02.669Z,78.73
2022-12-27T09:57:09.650Z,78.37
2022-12-27T09:58:18.380Z,78.37
2022-12-27T09:59:58.549Z,78.35
2022-12-27T10:01:38.874Z,79.72
2022-12-27T10:03:18.995Z,79.13
2022-12-27T10:06:39.327Z,78.68
2022-12-27T10:08:19.503Z,77.56
2022-12-27T10:09:59.700Z,77.59
2022-12-27T10:11:39.871Z,77.35
2022-12-27T10:13:20.011Z,77.37
2022-12-27T10:15:00.229Z,77.54
2022-12-27T10:16:40.394Z,77.06
2022-12-27T10:18:20.645Z,77.55
2022-12-27T10:20:00.868Z,77.25
2022-12-27T10:21:41.068Z,76.68
2022-12-27T10:23:21.270Z,77.01
2022-12-27T10:25:01.466Z,76.28
2022-12-27T10:26:41.634Z,76.62
2022-12-27T10:28:28.788Z,76.51
2022-12-27T10:30:09.011Z,76.48
2022-12-27T10:31:49.211Z,76.53
2022-12-27T10:33:29.379Z,77.16
2022-12-27T10:35:09.591Z,76.97
2022-12-27T10:36:49.784Z,76.54
2022-12-27T10:38:30.026Z,75.5
2022-12-27T10:40:10.261Z,75.32
2022-12-27T10:41:50.454Z,74.94
2022-12-27T10:43:30.679Z,75.8
2022-12-27T10:45:10.848Z,75.24
2022-12-27T10:46:51.189Z,74.86
2022-12-27T10:48:47.460Z,75
2022-12-27T10:50:11.403Z,75.35
2022-12-27T10:51:51.610Z,74.77
2022-12-27T10:53:31.786Z,74.45
2022-12-27T10:55:11.951Z,75.7
2022-12-27T10:56:52.140Z,75.45
2022-12-27T10:58:32.292Z,75.69
2022-12-27T11:00:12.469Z,74.9
2022-12-27T11:01:52.830Z,75.57
2022-12-27T11:03:32.901Z,74.78
2022-12-27T11:05:13.040Z,75.17
2022-12-27T11:06:53.223Z,74.98
2022-12-27T11:08:33.438Z,73.6
2022-12-27T11:10:13.608Z,74.65
2022-12-27T11:11:53.837Z,75.46
2022-12-27T11:13:33.997Z,75.92
2022-12-27T11:15:14.149Z,74.26
2022-12-27T11:16:54.371Z,74.69
2022-12-27T11:18:34.562Z,74.33
2022-12-27T11:20:14.769Z,75.25
2022-12-27T11:21:55.006Z,73.41
2022-12-27T11:23:35.150Z,73.72
2022-12-27T11:25:15.379Z,73.47
2022-12-27T11:26:55.545Z,74.15
2022-12-27T11:28:35.748Z,73.84
2022-12-27T11:30:15.978Z,73.37
2022-12-27T11:31:56.189Z,74.23
2022-12-27T11:33:36.336Z,73.92
2022-12-27T11:35:16.508Z,73.12
2022-12-27T11:36:56.708Z,73.64
2022-12-27T11:38:36.856Z,73.29
2022-12-27T11:40:17.030Z,73.85
2022-12-27T11:41:57.249Z,73.87
2022-12-27T11:43:37.451Z,73.29
2022-12-27T11:45:17.684Z,73.98
2022-12-27T11:46:59.441Z,73.95
2022-12-27T11:48:38.010Z,73.39
2022-12-27T11:50:18.191Z,74
2022-12-27T11:51:58.418Z,74.35
2022-12-27T11:53:38.566Z,74.63
2022-12-27T11:55:18.731Z,75.26
2022-12-27T11:57:01.985Z,74.51
2022-12-27T11:58:39.090Z,74.78
2022-12-27T12:00:19.287Z,75.13
2022-12-27T12:01:59.584Z,74.99
2022-12-27T12:03:39.699Z,74.49
2022-12-27T12:05:19.797Z,73.07
2022-12-27T12:07:00.008Z,72.86
2022-12-27T12:08:46.707Z,74.58
2022-12-27T12:10:26.797Z,74.79
2022-12-27T12:12:06.975Z,74.06
2022-12-27T12:13:47.165Z,74.39
2022-12-27T12:15:27.342Z,75.53
2022-12-27T12:17:07.517Z,74.62
2022-12-27T12:18:47.865Z,74.64
2022-12-27T12:20:28.032Z,74.89
2022-12-27T12:22:08.246Z,73.41
2022-12-27T12:23:48.400Z,74.07
2022-12-27T12:25:28.600Z,74.6
2022-12-27T12:27:08.772Z,75.71
2022-12-27T12:29:00.352Z,75.22
2022-12-27T12:30:29.154Z,74.66
2022-12-27T12:32:09.417Z,74.38
2022-12-27T12:33:49.532Z,73.88
2022-12-27T12:35:29.760Z,73.73
2022-12-27T12:37:09.964Z,74.38
2022-12-27T12:38:50.101Z,74.87
2022-12-27T12:40:30.304Z,73.22
2022-12-27T12:42:10.492Z,73.4
2022-12-27T12:43:50.767Z,72.96
2022-12-27T12:45:31.035Z,73.3
2022-12-27T12:47:11.177Z,73.3
2022-12-27T12:48:51.359Z,73.42
2022-12-27T12:50:31.505Z,73.68
2022-12-27T12:52:11.692Z,73.05
2022-12-27T12:53:51.880Z,73.57
2022-12-27T12:55:38.065Z,72.83
2022-12-27T12:57:12.191Z,72.74
2022-12-27T12:58:52.437Z,73.69
2022-12-27T13:00:32.671Z,72.85
2022-12-27T13:02:13.044Z,73.17
2022-12-27T13:03:52.962Z,73.64
2022-12-27T13:05:33.141Z,73.27
2022-12-27T13:07:13.341Z,73.05
2022-12-27T13:08:53.588Z,73.75
2022-12-27T13:10:33.754Z,72.46
2022-12-27T13:12:13.963Z,72.54
2022-12-27T13:13:54.150Z,72.67
2022-12-27T13:15:34.321Z,72.93
2022-12-27T13:17:14.558Z,72.14
2022-12-27T13:18:54.767Z,71.63
2022-12-27T13:20:34.921Z,73.15
2022-12-27T13:22:15.102Z,72.48
2022-12-27T13:23:55.281Z,72.38
2022-12-27T13:25:35.449Z,73.32
2022-12-27T13:27:15.664Z,71.8
2022-12-27T13:28:55.855Z,71.59
2022-12-27T13:30:36.061Z,72
2022-12-27T13:32:16.218Z,72.36
2022-12-27T13:33:56.449Z,72.25
2022-12-27T13:35:36.627Z,72.48
2022-12-27T13:37:16.786Z,72.09
2022-12-27T13:38:56.972Z,72.91
2022-12-27T13:40:37.123Z,73.04
2022-12-27T13:42:17.326Z,72.77
2022-12-27T13:43:57.563Z,72.74
2022-12-27T13:45:37.861Z,73.54
2022-12-27T13:47:17.914Z,73.1
2022-12-27T13:48:58.110Z,73.1
2022-12-27T13:50:38.294Z,72.77
2022-12-27T13:52:18.460Z,73.59
2022-12-27T13:53:58.724Z,73.9
2022-12-27T13:55:38.949Z,73.68
2022-12-27T13:57:19.098Z,73.5
2022-12-27T13:58:59.798Z,73.86
2022-12-27T14:00:42.597Z,73.62
2022-12-27T14:02:19.922Z,73.51
2022-12-27T14:03:59.908Z,73.19
2022-12-27T14:05:40.074Z,73.64
2022-12-27T14:07:20.259Z,73.98
2022-12-27T14:09:00.474Z,75.01
2022-12-27T14:10:40.639Z,75
2022-12-27T14:12:20.852Z,74.89
2022-12-27T14:14:00.991Z,74.35
2022-12-27T14:15:41.238Z,74.43
2022-12-27T14:17:21.328Z,73.33
2022-12-27T14:19:01.504Z,72.88
2022-12-27T14:20:41.715Z,73.94
2022-12-27T14:22:21.868Z,73.92
2022-12-27T14:24:02.055Z,73.59
2022-12-27T14:25:42.237Z,73.84
2022-12-27T14:27:22.391Z,74.08
2022-12-27T14:29:02.585Z,73.46
2022-12-27T14:30:49.866Z,74.65
2022-12-27T14:32:22.939Z,74.56
2022-12-27T14:34:03.149Z,74.19
2022-12-27T14:35:43.283Z,73.96
2022-12-27T14:37:23.447Z,74.14
2022-12-27T14:39:03.693Z,73.91
2022-12-27T14:40:49.987Z,74.27
2022-12-27T14:42:30.188Z,74.74
2022-12-27T14:44:10.494Z,74.64
2022-12-27T14:45:55.512Z,74.85
2022-12-27T14:47:30.839Z,74.97
2022-12-27T14:49:11.069Z,75.16
2022-12-27T14:50:51.244Z,75.49
2022-12-27T14:52:31.494Z,75.6
2022-12-27T14:54:11.697Z,75.76
2022-12-27T14:55:51.916Z,76.16
2022-12-27T14:57:33.969Z,76.17
2022-12-27T14:59:12.333Z,76.32
2022-12-27T15:00:52.544Z,76.33
2022-12-27T15:02:32.960Z,76.44
2022-12-27T15:04:12.988Z,76.66
2022-12-27T15:05:53.273Z,76.64
2022-12-27T15:07:33.489Z,76.6
2022-12-27T15:09:13.672Z,76.72
2022-12-27T15:10:53.852Z,76.63
2022-12-27T15:12:34.047Z,76.83
2022-12-27T15:14:14.279Z,77.09
2022-12-27T15:15:54.537Z,77.37
2022-12-27T15:17:34.672Z,77.37
2022-12-27T15:19:14.852Z,77.6
2022-12-27T15:20:55.067Z,77.75
2022-12-27T15:22:35.235Z,77.64
2022-12-27T15:24:15.445Z,77.68
2022-12-27T15:25:55.655Z,77.72
2022-12-27T15:27:35.853Z,77.8
2022-12-27T15:29:16.023Z,77.97
2022-12-27T15:30:56.335Z,78.13
2022-12-27T15:32:36.434Z,77.98
2022-12-27T15:34:16.609Z,78.56
2022-12-27T15:35:59.850Z,78.85
2022-12-27T15:37:36.981Z,78.95
2022-12-27T15:39:17.129Z,79.11
2022-12-27T15:40:57.300Z,79.37
2022-12-27T15:42:40.722Z,79.36
2022-12-27T15:44:17.760Z,79.41
2022-12-27T15:45:57.938Z,79.06
2022-12-27T15:47:38.120Z,79.16
2022-12-27T15:49:23.285Z,79.21
2022-12-27T15:51:03.418Z,79.65
2022-12-27T15:52:43.626Z,79.39
2022-12-27T15:54:23.859Z,79.8
2022-12-27T15:56:04.031Z,79.87
2022-12-27T15:57:44.234Z,78.91
2022-12-27T15:59:24.509Z,78.87
2022-12-27T16:01:04.634Z,78.68
2022-12-27T16:02:48.089Z,78.83
2022-12-27T16:04:25.024Z,79.11
2022-12-27T16:06:05.234Z,79.35
2022-12-27T16:07:45.437Z,79.91
2022-12-27T16:09:25.614Z,80.44
2022-12-27T16:11:05.845Z,80.8
2022-12-27T16:12:45.983Z,80.92
2022-12-27T16:14:26.224Z,80.91
2022-12-27T16:16:06.434Z,81.26
2022-12-27T16:17:46.605Z,81.19
2022-12-27T16:19:26.815Z,81.45
2022-12-27T16:21:07.024Z,81.57
2022-12-27T16:22:47.198Z,81.58
2022-12-27T16:24:27.396Z,81.92
2022-12-27T16:26:07.639Z,81.82
2022-12-27T16:27:47.813Z,82.06
2022-12-27T16:29:28.001Z,82.15
2022-12-27T16:31:08.237Z,82.29
2022-12-27T16:32:48.362Z,82.37
2022-12-27T16:34:28.561Z,82.51
2022-12-27T16:36:08.730Z,82.93
2022-12-27T16:37:48.916Z,82.78
2022-12-27T16:39:29.127Z,82.87
2022-12-27T16:41:09.315Z,82.84
2022-12-27T16:42:49.515Z,83.01
2022-12-27T16:44:33.138Z,83.13
2022-12-27T16:46:09.867Z,83.07
2022-12-27T16:47:50.054Z,83.13
2022-12-27T16:49:30.225Z,83.23
2022-12-27T16:51:10.417Z,83.3
2022-12-27T16:52:50.659Z,83.79
2022-12-27T16:54:30.858Z,83.64
2022-12-27T16:56:11.015Z,83.76
2022-12-27T16:57:51.193Z,83.84
2022-12-27T16:59:31.425Z,83.99
2022-12-27T17:01:11.687Z,83.82
2022-12-27T17:02:51.875Z,84.12
2022-12-27T17:04:32.012Z,84
2022-12-27T17:07:52.328Z,83.8
2022-12-27T17:09:34.170Z,83.88
2022-12-27T17:11:12.700Z,84.09
2022-12-27T17:12:52.860Z,84.02
2022-12-27T17:14:33.018Z,84.04
2022-12-27T17:16:13.236Z,83.89
2022-12-27T17:17:53.507Z,83.94
2022-12-27T17:19:36.734Z,83.97
2022-12-27T17:21:13.840Z,84.05
2022-12-27T17:22:54.011Z,84.06
2022-12-27T17:24:34.185Z,84.16
2022-12-27T17:26:14.408Z,83.89
2022-12-27T17:27:54.564Z,84.4
2022-12-27T17:29:34.732Z,84.63
2022-12-27T17:31:15.020Z,84.5
2022-12-27T17:32:55.141Z,84.59
2022-12-27T17:34:35.314Z,84.57
2022-12-27T17:36:15.553Z,84.63
2022-12-27T17:37:55.701Z,84.48
2022-12-27T17:39:35.934Z,84.33
2022-12-27T17:41:16.372Z,84.48
2022-12-27T17:42:56.285Z,84.15
2022-12-27T17:44:36.518Z,84.05
2022-12-27T17:46:16.743Z,84.26
2022-12-27T17:47:56.832Z,84.06
2022-12-27T17:49:37.002Z,84.14
2022-12-27T17:51:17.218Z,83.94
2022-12-27T17:52:57.453Z,83.99
2022-12-27T17:54:37.687Z,83.83
2022-12-27T17:56:17.857Z,83.52
2022-12-27T17:57:58.098Z,83.33
2022-12-27T17:59:38.288Z,83.45
2022-12-27T18:01:18.609Z,83.12
2022-12-27T18:02:58.713Z,83.09
2022-12-27T18:04:38.869Z,83.14
2022-12-27T18:06:19.027Z,82.95
2022-12-27T18:07:59.194Z,82.85
2022-12-27T18:09:39.379Z,82.95
2022-12-27T18:11:24.823Z,82.58
2022-12-27T18:12:59.723Z,82.49
2022-12-27T18:14:39.865Z,82.47
2022-12-27T18:16:20.131Z,82.28
2022-12-27T18:18:00.315Z,82.2
2022-12-27T18:19:40.459Z,81.95
2022-12-27T18:21:20.694Z,82.08
2022-12-27T18:23:00.881Z,82.02
2022-12-27T18:24:40.981Z,82.05
2022-12-27T18:26:21.149Z,81.99
2022-12-27T18:28:01.311Z,81.79
2022-12-27T18:29:41.537Z,81.74
2022-12-27T18:31:21.772Z,81.93
2022-12-27T18:33:01.873Z,81.57
2022-12-27T18:34:42.112Z,81.68
2022-12-27T18:36:22.278Z,81.6
2022-12-27T18:38:02.499Z,81.68
2022-12-27T18:39:42.624Z,81.82
2022-12-27T18:41:22.789Z,81.64
2022-12-27T18:43:02.964Z,81.56
2022-12-27T18:44:48.810Z,81.41
2022-12-27T18:46:34.705Z,81.52
2022-12-27T18:48:14.868Z,81.36
2022-12-27T18:49:55.057Z,81.56
2022-12-27T18:51:41.189Z,81.56
2022-12-27T18:53:21.402Z,81.46
2022-12-27T18:55:01.597Z,81.51
2022-12-27T18:56:41.762Z,81.43
2022-12-27T18:58:21.957Z,81.36
2022-12-27T19:00:02.148Z,81.21
2022-12-27T19:01:42.501Z,81.37
2022-12-27T19:03:22.555Z,81.21
2022-12-27T19:05:02.737Z,81.21
2022-12-27T19:06:42.927Z,81.08
2022-12-27T19:08:23.110Z,81.07
2022-12-27T19:10:03.311Z,81
2022-12-27T19:11:43.520Z,80.94
2022-12-27T19:13:26.761Z,81.14
2022-12-27T19:15:03.906Z,81.21
2022-12-27T19:16:44.019Z,80.99
2022-12-27T19:18:24.280Z,81.03
2022-12-27T19:20:04.461Z,81.02
2022-12-27T19:21:44.720Z,80.93
2022-12-27T19:23:24.865Z,80.9
2022-12-27T19:25:05.007Z,80.53
2022-12-27T19:26:45.219Z,80.67
2022-12-27T19:28:25.375Z,80.63
2022-12-27T19:30:05.551Z,80.99
2022-12-27T19:31:45.864Z,80.87
2022-12-27T19:33:25.941Z,80.53
2022-12-27T19:35:06.141Z,80.68
2022-12-27T19:36:46.283Z,80.59
2022-12-27T19:38:26.505Z,80.26
2022-12-27T19:40:06.665Z,80.52
2022-12-27T19:41:46.868Z,80.41
2022-12-27T19:43:27.124Z,80.58
2022-12-27T19:45:07.334Z,80.27
2022-12-27T19:46:50.535Z,80.16
2022-12-27T19:48:27.669Z,80.3
2022-12-27T19:50:07.888Z,80.04
2022-12-27T19:51:48.068Z,80
2022-12-27T19:53:28.244Z,79.8
2022-12-27T19:55:11.495Z,80.21
2022-12-27T19:56:48.648Z,80.14
2022-12-27T19:58:28.834Z,79.98
2022-12-27T20:00:12.617Z,79.79
2022-12-27T20:01:49.419Z,79.7
2022-12-27T20:03:29.574Z,80.03
2022-12-27T20:05:09.704Z,80.05
2022-12-27T20:06:49.912Z,79.58
2022-12-27T20:08:30.153Z,79.84
2022-12-27T20:10:10.369Z,79.89
2022-12-27T20:11:50.582Z,79.7
2022-12-27T20:13:30.773Z,79.95
2022-12-27T20:15:10.958Z,79.48
2022-12-27T20:16:51.271Z,79.44
2022-12-27T20:18:31.404Z,79.54
2022-12-27T20:20:11.606Z,79.69
2022-12-27T20:21:51.778Z,79.59
2022-12-27T20:23:31.926Z,79.66
2022-12-27T20:25:12.127Z,79.73
2022-12-27T20:26:55.371Z,79.73
2022-12-27T20:28:32.487Z,79.76
2022-12-27T20:30:12.689Z,79.68
2022-12-27T20:31:52.908Z,79.71
2022-12-27T20:33:33.073Z,79.9
2022-12-27T20:35:13.246Z,79.9
2022-12-27T20:36:53.478Z,79.89
2022-12-27T20:38:33.677Z,80.01
2022-12-27T20:40:13.916Z,80.34
2022-12-27T20:41:54.037Z,80.41
2022-12-27T20:43:34.166Z,80.48
2022-12-27T20:45:14.379Z,80.42
2022-12-27T20:46:54.583Z,80.56
2022-12-27T20:48:34.768Z,80.56
2022-12-27T20:50:14.973Z,80.75
2022-12-27T20:51:55.119Z,80.84
2022-12-27T20:53:35.300Z,81.05
2022-12-27T20:55:15.457Z,81.04
2022-12-27T20:56:55.622Z,81.16
2022-12-27T20:58:35.829Z,81.32
2022-12-27T21:00:19.040Z,81.41
2022-12-27T21:01:57.358Z,81.19
2022-12-27T21:03:36.467Z,81.43
2022-12-27T21:05:16.536Z,81.74
2022-12-27T21:06:56.688Z,82.05
2022-12-27T21:08:44.546Z,82.04
2022-12-27T21:10:17.015Z,81.87
2022-12-27T21:13:40.436Z,82.2
2022-12-27T21:15:17.623Z,82.31
2022-12-27T21:16:57.863Z,82.33
2022-12-27T21:18:38.075Z,82.26
2022-12-27T21:20:18.181Z,82.21
2022-12-27T21:21:58.375Z,82.2
2022-12-27T21:23:38.516Z,82.27
2022-12-27T21:25:18.759Z,82.22
2022-12-27T21:26:58.928Z,82.31
2022-12-27T21:28:39.074Z,82.36
2022-12-27T21:30:19.346Z,82.43
2022-12-27T21:31:59.502Z,82.29
2022-12-27T21:33:39.646Z,82.13
2022-12-27T21:35:19.849Z,82.23
2022-12-27T21:37:00.035Z,82.3
2022-12-27T21:38:40.230Z,82.38
2022-12-27T21:40:20.471Z,82.38
2022-12-27T21:42:00.622Z,82.48
2022-12-27T21:43:40.835Z,82.58
2022-12-27T21:45:20.989Z,82.51
2022-12-27T21:47:01.215Z,82.51